Time;durP1;ratioP1;P1;durP2;ratioP2;P2;SDS_P1;SDS_P2;PMS_P1;PMS_P2;Temp;Humidity;BMP_temperature;BMP_pressure;BME280_temperature;BME280_humidity;BME280_pressure;Samples;Min_cycle;Max_cycle;Signal;HPM_P1;HPM_P2
2022/03/24 00:02:20;;;;;;;31.08;13.88;;;;;;;;;;5065902;27;95136;-76
2022/03/24 00:04:46;;;;;;;42.92;14.82;;;;;;;;;;5068874;27;96658;-76
2022/03/24 00:07:12;;;;;;;35.58;14.18;;;;;;;;;;5056501;27;95157;-77
2022/03/24 00:09:39;;;;;;;33.92;13.27;;;;;;;;;;5061055;27;97148;-76
2022/03/24 00:12:06;;;;;;;29.38;13.98;;;;;;;;;;5056112;27;97848;-77
2022/03/24 00:14:32;;;;;;;31.48;14.25;;;;;;;;;;5066061;27;95728;-77
2022/03/24 00:16:59;;;;;;;40.03;14.75;;;;;;;;;;5058431;27;96968;-77
2022/03/24 00:19:27;;;;;;;39.35;14.23;;;;;;;;;;5060119;27;97225;-77
2022/03/24 00:21:54;;;;;;;32.53;13.13;;;;;;;;;;5054610;27;95272;-77
2022/03/24 00:24:20;;;;;;;34.08;14.38;;;;;;;;;;5064674;27;97132;-77
2022/03/24 00:26:47;;;;;;;41.38;15.15;;;;;;;;;;5064604;27;96797;-77
2022/03/24 00:29:13;;;;;;;47.28;15.85;;;;;;;;;;5065321;27;96225;-77
2022/03/24 00:31:40;;;;;;;40.85;18.27;;;;;;;;;;5052359;27;97377;-78
2022/03/24 00:34:07;;;;;;;44.88;16.60;;;;;;;;;;5061642;27;95718;-78
2022/03/24 00:36:34;;;;;;;32.78;16.08;;;;;;;;;;5064092;27;97828;-78
2022/03/24 00:39:00;;;;;;;35.97;16.77;;;;;;;;;;5064813;27;96900;-78
2022/03/24 00:41:28;;;;;;;43.50;18.30;;;;;;;;;;5057667;27;95535;-78
2022/03/24 00:43:55;;;;;;;41.83;18.08;;;;;;;;;;5058195;27;96630;-78
2022/03/24 00:46:22;;;;;;;43.45;18.13;;;;;;;;;;5063878;27;97998;-77
2022/03/24 00:48:50;;;;;;;43.90;17.73;;;;;;;;;;5054599;27;96430;-78
2022/03/24 00:51:18;;;;;;;37.53;17.23;;;;;;;;;;5063740;27;97104;-77
2022/03/24 00:53:45;;;;;;;41.10;17.98;;;;;;;;;;5059457;27;95557;-77
2022/03/24 00:56:12;;;;;;;36.90;17.75;;;;;;;;;;5065263;27;97392;-76
2022/03/24 00:58:38;;;;;;;40.60;18.40;;;;;;;;;;5059921;27;98091;-77
2022/03/24 01:01:06;;;;;;;50.22;17.65;;;;;;;;;;5064693;27;95151;-77
2022/03/24 01:03:33;;;;;;;41.45;19.13;;;;;;;;;;5057415;27;96797;-77
2022/03/24 01:05:59;;;;;;;50.40;18.83;;;;;;;;;;5064764;27;97692;-78
2022/03/24 01:08:26;;;;;;;46.50;18.58;;;;;;;;;;5065550;27;95689;-77
2022/03/24 01:10:55;;;;;;;47.72;19.80;;;;;;;;;;5064949;27;97616;-78
2022/03/24 01:13:21;;;;;;;48.35;21.27;;;;;;;;;;5055209;27;95957;-78
2022/03/24 01:15:49;;;;;;;44.63;19.10;;;;;;;;;;5059652;27;97373;-78
2022/03/24 01:18:16;;;;;;;34.58;18.00;;;;;;;;;;5053525;27;97707;-77
2022/03/24 01:20:43;;;;;;;43.15;18.83;;;;;;;;;;5054584;27;95431;-77
2022/03/24 01:23:11;;;;;;;37.50;17.75;;;;;;;;;;5064361;27;97235;-77
2022/03/24 01:25:37;;;;;;;47.42;19.52;;;;;;;;;;5068538;27;97227;-77
2022/03/24 01:28:04;;;;;;;48.90;19.70;;;;;;;;;;5064737;27;95067;-76
2022/03/24 01:30:30;;;;;;;42.95;18.50;;;;;;;;;;5058318;27;95981;-77
2022/03/24 01:32:57;;;;;;;41.72;19.13;;;;;;;;;;5064365;27;95423;-78
2022/03/24 01:35:23;;;;;;;40.97;19.45;;;;;;;;;;5064470;27;97462;-78
2022/03/24 01:37:50;;;;;;;39.08;20.27;;;;;;;;;;5064942;27;98205;-78
2022/03/24 01:40:16;;;;;;;47.90;19.42;;;;;;;;;;5052655;27;95789;-78
2022/03/24 01:42:43;;;;;;;50.13;19.75;;;;;;;;;;5053689;27;96833;-77
2022/03/24 01:45:10;;;;;;;45.42;19.75;;;;;;;;;;5062946;27;97638;-78
2022/03/24 01:47:37;;;;;;;45.10;20.05;;;;;;;;;;5058158;27;95303;-77
2022/03/24 01:50:05;;;;;;;49.13;19.85;;;;;;;;;;5064339;27;99176;-78
2022/03/24 01:52:31;;;;;;;44.03;21.05;;;;;;;;;;5065924;27;97916;-78
2022/03/24 01:54:59;;;;;;;45.70;21.50;;;;;;;;;;5053415;27;95779;-78
2022/03/24 01:57:29;;;;;;;51.20;22.70;;;;;;;;;;5059610;27;97553;-78
2022/03/24 01:59:56;;;;;;;42.00;21.85;;;;;;;;;;5051114;27;96638;-77
2022/03/24 02:02:22;;;;;;;46.10;22.20;;;;;;;;;;5054188;27;98209;-78
2022/03/24 02:04:49;;;;;;;42.78;21.90;;;;;;;;;;5063541;27;98451;-77
2022/03/24 02:07:15;;;;;;;45.40;22.50;;;;;;;;;;5054094;27;95311;-77
2022/03/24 02:09:42;;;;;;;48.92;20.63;;;;;;;;;;5057671;27;96891;-76
2022/03/24 02:12:10;;;;;;;50.40;22.15;;;;;;;;;;5051918;27;97395;-77
2022/03/24 02:14:36;;;;;;;50.47;22.55;;;;;;;;;;5067072;27;95326;-75
2022/03/24 02:17:03;;;;;;;44.20;20.58;;;;;;;;;;5052415;27;98022;-78
2022/03/24 02:19:30;;;;;;;50.15;22.42;;;;;;;;;;5065379;27;95860;-78
2022/03/24 02:21:59;;;;;;;45.03;22.05;;;;;;;;;;5058473;27;97215;-77
2022/03/24 02:24:25;;;;;;;36.67;20.00;;;;;;;;;;5061028;27;97311;-79
2022/03/24 02:26:52;;;;;;;41.28;20.08;;;;;;;;;;5053584;27;96856;-77
2022/03/24 02:29:20;;;;;;;46.40;20.80;;;;;;;;;;5050583;27;96881;-78
2022/03/24 02:31:47;;;;;;;41.85;20.65;;;;;;;;;;5063476;27;97043;-78
2022/03/24 02:37:01;;;;;;;49.78;21.30;;;;;;;;;;5058859;27;96851;-78
2022/03/24 02:39:28;;;;;;;44.50;20.85;;;;;;;;;;5053570;27;95658;-78
2022/03/24 02:41:55;;;;;;;39.85;21.00;;;;;;;;;;5056187;27;97363;-76
2022/03/24 02:44:24;;;;;;;47.00;20.75;;;;;;;;;;5059429;27;97348;-78
2022/03/24 02:46:51;;;;;;;42.58;20.70;;;;;;;;;;5056806;27;95614;-78
2022/03/24 02:49:18;;;;;;;46.10;20.65;;;;;;;;;;5067257;27;96787;-79
2022/03/24 02:51:45;;;;;;;50.80;20.20;;;;;;;;;;5056584;27;97612;-78
2022/03/24 02:54:12;;;;;;;41.53;20.70;;;;;;;;;;5058777;27;95256;-78
2022/03/24 02:56:38;;;;;;;50.60;20.85;;;;;;;;;;5059780;27;96812;-79
2022/03/24 02:59:06;;;;;;;46.38;19.85;;;;;;;;;;5066225;27;95457;-79
2022/03/24 03:01:33;;;;;;;48.35;20.83;;;;;;;;;;5066698;27;96791;-77
2022/03/24 03:04:00;;;;;;;50.08;20.38;;;;;;;;;;5061900;27;96773;-78
2022/03/24 03:06:26;;;;;;;42.38;19.85;;;;;;;;;;5064567;27;95924;-78
2022/03/24 03:08:53;;;;;;;43.13;20.00;;;;;;;;;;5054207;27;97238;-77
2022/03/24 03:11:22;;;;;;;42.92;20.42;;;;;;;;;;5066594;27;97783;-77
2022/03/24 03:13:49;;;;;;;44.88;19.80;;;;;;;;;;5059498;27;95377;-76
2022/03/24 03:16:16;;;;;;;44.75;20.77;;;;;;;;;;5060009;27;98702;-77
2022/03/24 03:18:42;;;;;;;49.95;21.55;;;;;;;;;;5059354;27;96818;-77
2022/03/24 03:21:09;;;;;;;47.80;22.75;;;;;;;;;;5058559;27;96737;-77
2022/03/24 03:23:38;;;;;;;48.42;22.00;;;;;;;;;;5055882;27;97294;-77
2022/03/24 03:26:05;;;;;;;53.00;23.20;;;;;;;;;;5061460;27;96685;-78
2022/03/24 03:28:32;;;;;;;49.22;22.98;;;;;;;;;;5055862;27;97069;-77
2022/03/24 03:30:58;;;;;;;49.75;22.05;;;;;;;;;;5055590;27;97875;-78
2022/03/24 03:33:25;;;;;;;49.40;22.92;;;;;;;;;;5061343;27;95413;-76
2022/03/24 03:35:52;;;;;;;56.95;22.27;;;;;;;;;;5062606;27;97276;-76
2022/03/24 03:38:19;;;;;;;55.42;23.58;;;;;;;;;;5056566;27;97747;-77
2022/03/24 03:40:46;;;;;;;53.83;24.40;;;;;;;;;;5069928;27;95398;-77
2022/03/24 03:43:14;;;;;;;53.90;23.70;;;;;;;;;;5056175;27;97449;-77
2022/03/24 03:45:45;;;;;;;45.83;21.70;;;;;;;;;;5060673;27;95690;-77
2022/03/24 03:48:12;;;;;;;50.70;22.70;;;;;;;;;;5063656;27;96121;-76
2022/03/24 03:50:41;;;;;;;54.67;24.13;;;;;;;;;;5054663;27;97317;-76
2022/03/24 03:53:08;;;;;;;49.97;23.45;;;;;;;;;;5066054;27;96039;-76
2022/03/24 03:55:35;;;;;;;57.40;24.40;;;;;;;;;;5059276;27;97553;-77
2022/03/24 03:58:05;;;;;;;55.28;23.88;;;;;;;;;;5055539;27;97781;-76
2022/03/24 04:03:17;;;;;;;49.67;24.33;;;;;;;;;;5059072;27;96425;-77
2022/03/24 04:05:44;;;;;;;50.00;24.45;;;;;;;;;;5060986;27;95730;-77
2022/03/24 04:08:11;;;;;;;54.83;25.70;;;;;;;;;;5062677;27;97121;-79
2022/03/24 04:10:38;;;;;;;53.30;23.23;;;;;;;;;;5056406;27;97372;-78
2022/03/24 04:13:05;;;;;;;49.53;24.40;;;;;;;;;;5054899;27;95364;-77
2022/03/24 04:15:33;;;;;;;49.40;24.45;;;;;;;;;;5066624;27;96943;-78
2022/03/24 04:18:00;;;;;;;58.33;25.40;;;;;;;;;;5058849;27;98427;-77
2022/03/24 04:20:26;;;;;;;52.72;24.05;;;;;;;;;;5063301;27;95838;-79
2022/03/24 04:22:54;;;;;;;55.35;23.88;;;;;;;;;;5066013;27;96852;-79
2022/03/24 04:25:21;;;;;;;53.90;24.52;;;;;;;;;;5057439;27;98603;-78
2022/03/24 04:27:47;;;;;;;62.45;26.63;;;;;;;;;;5062744;27;96781;-78
2022/03/24 04:30:14;;;;;;;55.30;26.13;;;;;;;;;;5060293;27;97576;-78
2022/03/24 04:32:41;;;;;;;60.90;28.42;;;;;;;;;;5054734;27;95323;-78
2022/03/24 04:35:08;;;;;;;70.20;30.35;;;;;;;;;;5065223;27;97218;-77
2022/03/24 04:37:35;;;;;;;58.30;28.27;;;;;;;;;;5059032;27;97955;-79
2022/03/24 04:40:03;;;;;;;61.75;30.50;;;;;;;;;;5065451;27;95375;-77
2022/03/24 04:42:30;;;;;;;62.53;28.77;;;;;;;;;;5064868;27;97255;-77
2022/03/24 04:44:57;;;;;;;60.78;30.10;;;;;;;;;;5053687;27;98007;-77
2022/03/24 04:47:23;;;;;;;71.93;31.27;;;;;;;;;;5066833;27;95300;-77
2022/03/24 04:49:50;;;;;;;61.63;28.98;;;;;;;;;;5053665;27;97644;-77
2022/03/24 04:52:16;;;;;;;61.20;29.30;;;;;;;;;;5054492;27;95366;-76
2022/03/24 04:54:44;;;;;;;63.75;29.85;;;;;;;;;;5064492;27;97271;-77
2022/03/24 04:57:10;;;;;;;61.08;29.27;;;;;;;;;;5054087;27;97920;-77
2022/03/24 04:59:37;;;;;;;64.40;27.92;;;;;;;;;;5066107;27;95997;-77
2022/03/24 05:02:03;;;;;;;64.35;28.90;;;;;;;;;;5065939;27;97501;-78
2022/03/24 05:04:30;;;;;;;71.35;29.70;;;;;;;;;;5057002;27;97441;-77
2022/03/24 05:07:00;;;;;;;70.97;29.75;;;;;;;;;;5067828;27;95287;-77
2022/03/24 05:09:26;;;;;;;70.40;29.55;;;;;;;;;;5052955;27;97188;-77
2022/03/24 05:11:53;;;;;;;63.05;29.02;;;;;;;;;;5057320;27;95548;-76
2022/03/24 05:14:19;;;;;;;64.65;29.40;;;;;;;;;;5056429;27;96903;-76
2022/03/24 05:16:46;;;;;;;64.55;28.52;;;;;;;;;;5054927;27;97652;-78
2022/03/24 05:19:13;;;;;;;76.03;29.33;;;;;;;;;;5056316;27;96489;-78
2022/03/24 05:21:40;;;;;;;59.33;28.38;;;;;;;;;;5065592;27;95808;-77
2022/03/24 05:24:06;;;;;;;65.07;29.70;;;;;;;;;;5059213;27;96593;-78
2022/03/24 05:26:33;;;;;;;65.50;29.17;;;;;;;;;;5061111;27;95437;-78
2022/03/24 05:29:02;;;;;;;58.78;28.95;;;;;;;;;;5058196;27;97927;-77
2022/03/24 05:31:28;;;;;;;67.10;29.13;;;;;;;;;;5053862;27;95452;-77
2022/03/24 05:33:55;;;;;;;63.20;27.67;;;;;;;;;;5061456;27;96162;-76
2022/03/24 05:36:21;;;;;;;60.60;26.95;;;;;;;;;;5053630;27;97258;-78
2022/03/24 05:38:48;;;;;;;60.05;27.88;;;;;;;;;;5052263;27;96235;-78
2022/03/24 18:05:57;;;;;;;61.97;28.90;;;;;;;;;;5083638;27;95713;-76
2022/03/24 18:08:24;;;;;;;64.45;29.90;;;;;;;;;;5064522;27;96658;-76
2022/03/24 18:10:50;;;;;;;67.22;31.17;;;;;;;;;;5062340;27;96990;-76
2022/03/24 18:13:17;;;;;;;60.05;31.23;;;;;;;;;;5072610;27;96825;-76
2022/03/24 18:15:44;;;;;;;62.65;31.23;;;;;;;;;;5061337;27;97387;-77
2022/03/24 18:18:10;;;;;;;63.15;32.63;;;;;;;;;;5057130;27;95596;-77
2022/03/24 18:20:37;;;;;;;64.35;32.70;;;;;;;;;;5044721;27;96707;-77
2022/03/24 18:23:03;;;;;;;66.72;34.25;;;;;;;;;;5042978;27;97398;-76
2022/03/24 18:25:30;;;;;;;67.57;34.72;;;;;;;;;;5047704;27;95374;-76
2022/03/24 18:27:56;;;;;;;63.75;35.38;;;;;;;;;;5044106;27;97514;-76
2022/03/24 18:30:22;;;;;;;64.75;35.60;;;;;;;;;;5043697;27;95519;-75
2022/03/24 18:32:49;;;;;;;63.45;35.20;;;;;;;;;;5049685;27;96740;-78
2022/03/24 18:35:15;;;;;;;67.35;35.05;;;;;;;;;;5051887;27;97286;-76
2022/03/24 18:37:42;;;;;;;66.78;36.33;;;;;;;;;;5064116;27;95242;-76
2022/03/24 18:40:08;;;;;;;63.78;34.30;;;;;;;;;;5063930;27;97056;-77
2022/03/24 18:42:34;;;;;;;66.20;34.90;;;;;;;;;;5063645;27;96260;-77
2022/03/24 18:45:01;;;;;;;66.38;34.92;;;;;;;;;;5065202;27;96083;-77
2022/03/24 18:47:27;;;;;;;71.25;35.05;;;;;;;;;;5057981;27;96814;-77
2022/03/24 18:49:55;;;;;;;70.20;34.15;;;;;;;;;;5059493;27;96621;-77
2022/03/24 18:52:22;;;;;;;67.93;33.45;;;;;;;;;;5060749;27;96770;-78
2022/03/24 18:54:48;;;;;;;68.50;33.55;;;;;;;;;;5079031;27;97263;-76
2022/03/24 18:57:14;;;;;;;62.65;32.38;;;;;;;;;;5072391;27;95579;-75
2022/03/24 18:59:41;;;;;;;65.72;32.97;;;;;;;;;;5061628;27;97018;-76
2022/03/24 19:02:08;;;;;;;66.07;32.25;;;;;;;;;;5058023;27;97468;-78
2022/03/24 19:04:35;;;;;;;60.58;30.73;;;;;;;;;;5042890;27;95718;-77
2022/03/24 19:07:03;;;;;;;63.28;30.95;;;;;;;;;;5058572;27;96736;-77
2022/03/24 19:09:30;;;;;;;52.25;28.40;;;;;;;;;;5066444;27;97922;-77
2022/03/24 19:11:57;;;;;;;57.78;29.58;;;;;;;;;;5064052;27;96553;-76
2022/03/24 19:14:24;;;;;;;56.28;27.63;;;;;;;;;;5062332;27;97372;-76
2022/03/24 19:16:51;;;;;;;53.78;27.65;;;;;;;;;;5051925;27;95342;-76
2022/03/24 19:19:18;;;;;;;50.17;25.85;;;;;;;;;;5048965;27;96691;-75
2022/03/24 19:21:44;;;;;;;58.38;25.88;;;;;;;;;;5049683;27;97363;-77
2022/03/24 19:24:10;;;;;;;61.38;25.30;;;;;;;;;;5049267;27;95387;-78
2022/03/24 19:26:37;;;;;;;52.40;26.40;;;;;;;;;;5049072;27;95697;-77
2022/03/24 19:29:04;;;;;;;49.13;25.70;;;;;;;;;;5050192;27;97338;-77
2022/03/24 19:31:31;;;;;;;57.13;26.52;;;;;;;;;;5073602;27;95773;-76
2022/03/24 19:33:58;;;;;;;57.90;25.83;;;;;;;;;;5055217;27;97696;-77
2022/03/24 19:36:25;;;;;;;58.70;25.98;;;;;;;;;;5049765;27;95875;-77
2022/03/24 19:38:52;;;;;;;57.33;25.48;;;;;;;;;;5049543;27;96935;-77
2022/03/24 19:41:18;;;;;;;61.42;24.73;;;;;;;;;;5048972;27;97274;-76
2022/03/24 19:43:44;;;;;;;58.05;25.88;;;;;;;;;;5049747;27;95636;-77
2022/03/24 19:46:11;;;;;;;45.03;25.00;;;;;;;;;;5048259;27;96753;-76
2022/03/24 19:48:37;;;;;;;56.42;24.20;;;;;;;;;;5049636;27;97440;-77
2022/03/24 19:51:04;;;;;;;53.63;24.45;;;;;;;;;;5059165;27;95366;-76
2022/03/24 19:53:30;;;;;;;57.08;25.27;;;;;;;;;;5051039;27;97284;-76
2022/03/24 19:55:57;;;;;;;53.05;27.58;;;;;;;;;;5049647;27;95339;-76
2022/03/24 19:58:24;;;;;;;60.78;30.10;;;;;;;;;;5049424;27;97235;-76
2022/03/24 20:00:50;;;;;;;62.70;30.05;;;;;;;;;;5048397;27;97219;-77
2022/03/24 20:03:16;;;;;;;61.05;30.15;;;;;;;;;;5049159;27;95473;-76
2022/03/24 20:05:43;;;;;;;59.50;31.27;;;;;;;;;;5049342;27;96756;-75
2022/03/24 20:08:09;;;;;;;57.10;28.63;;;;;;;;;;5047939;27;97320;-76
2022/03/24 20:10:36;;;;;;;64.13;31.08;;;;;;;;;;5048812;27;95440;-76
2022/03/24 20:13:02;;;;;;;62.25;29.13;;;;;;;;;;5053857;27;96773;-76
2022/03/24 20:15:28;;;;;;;65.05;29.25;;;;;;;;;;5071763;27;95195;-76
2022/03/24 20:17:55;;;;;;;66.00;29.98;;;;;;;;;;5067598;27;95783;-76
2022/03/24 20:20:23;;;;;;;54.22;28.50;;;;;;;;;;5064042;27;97367;-75
2022/03/24 20:22:52;;;;;;;55.50;29.02;;;;;;;;;;5048428;27;96789;-76
2022/03/24 20:25:19;;;;;;;54.42;28.00;;;;;;;;;;5048695;27;96934;-76
2022/03/24 20:27:45;;;;;;;51.78;27.17;;;;;;;;;;5027981;27;97478;-76
2022/03/24 20:30:13;;;;;;;50.83;27.30;;;;;;;;;;5034072;27;95550;-76
2022/03/24 20:32:39;;;;;;;60.75;26.35;;;;;;;;;;5069635;27;96664;-76
2022/03/24 20:35:07;;;;;;;54.72;26.77;;;;;;;;;;5072103;27;97294;-74
2022/03/24 20:37:33;;;;;;;51.70;25.58;;;;;;;;;;5047702;27;95970;-76
2022/03/24 20:40:00;;;;;;;49.53;24.30;;;;;;;;;;5048541;27;97797;-76
2022/03/24 20:42:28;;;;;;;52.55;26.33;;;;;;;;;;5048450;27;95613;-75
2022/03/24 20:44:56;;;;;;;43.47;22.95;;;;;;;;;;5048432;27;96649;-76
2022/03/24 20:47:22;;;;;;;56.00;23.10;;;;;;;;;;5047786;27;97229;-76
2022/03/24 20:49:49;;;;;;;46.72;22.77;;;;;;;;;;5047759;27;95277;-76
2022/03/24 20:52:15;;;;;;;53.95;20.48;;;;;;;;;;5065828;27;97167;-76
2022/03/24 20:54:42;;;;;;;46.33;20.52;;;;;;;;;;5052703;27;97522;-77
2022/03/24 20:57:08;;;;;;;40.28;20.23;;;;;;;;;;5052290;27;95870;-77
2022/03/24 20:59:35;;;;;;;41.13;20.33;;;;;;;;;;5048802;27;97232;-76
2022/03/24 21:02:03;;;;;;;42.08;20.15;;;;;;;;;;5050379;27;95802;-76
2022/03/24 21:04:29;;;;;;;44.30;20.88;;;;;;;;;;5047882;27;96738;-76
2022/03/24 21:06:55;;;;;;;49.65;20.38;;;;;;;;;;5048834;27;97585;-76
2022/03/24 21:09:22;;;;;;;42.70;20.63;;;;;;;;;;5049030;27;96037;-77
2022/03/24 21:11:48;;;;;;;47.13;21.70;;;;;;;;;;5048974;27;96826;-77
2022/03/24 21:14:14;;;;;;;43.42;21.40;;;;;;;;;;5047611;27;97183;-76
2022/03/24 21:16:41;;;;;;;48.67;22.25;;;;;;;;;;5049207;27;95397;-77
2022/03/24 21:19:07;;;;;;;57.70;26.75;;;;;;;;;;5051564;27;96652;-77
2022/03/24 21:21:33;;;;;;;70.32;33.22;;;;;;;;;;5055401;27;95398;-75
2022/03/24 21:24:00;;;;;;;56.70;27.75;;;;;;;;;;5069272;27;95818;-76
2022/03/24 21:26:31;;;;;;;52.03;26.57;;;;;;;;;;5058612;27;97517;-76
2022/03/24 21:28:58;;;;;;;48.28;24.27;;;;;;;;;;5048134;27;95323;-76
2022/03/24 21:31:25;;;;;;;47.20;24.38;;;;;;;;;;5049489;27;96700;-75
2022/03/24 21:33:51;;;;;;;44.80;22.73;;;;;;;;;;5049001;27;97045;-76
2022/03/24 21:36:19;;;;;;;51.97;24.33;;;;;;;;;;5049044;27;96710;-76
2022/03/24 21:38:45;;;;;;;55.70;24.20;;;;;;;;;;5048869;27;96633;-76
2022/03/24 21:41:12;;;;;;;61.58;24.52;;;;;;;;;;5054578;27;97444;-76
2022/03/24 21:43:38;;;;;;;49.20;23.83;;;;;;;;;;5069736;27;96882;-76
2022/03/24 21:46:05;;;;;;;49.13;23.92;;;;;;;;;;5068519;27;97719;-76
2022/03/24 21:48:31;;;;;;;44.33;23.08;;;;;;;;;;5068351;27;96254;-76
2022/03/24 21:50:57;;;;;;;49.78;23.98;;;;;;;;;;5069664;27;96744;-76
2022/03/24 21:53:24;;;;;;;49.42;25.55;;;;;;;;;;5067765;27;97496;-75
2022/03/24 21:55:50;;;;;;;55.80;24.55;;;;;;;;;;5069572;27;95325;-76
2022/03/24 21:58:16;;;;;;;45.53;24.20;;;;;;;;;;5066345;27;96856;-76
2022/03/24 22:00:43;;;;;;;45.30;24.92;;;;;;;;;;5068745;27;97837;-76
2022/03/24 22:03:09;;;;;;;50.97;23.35;;;;;;;;;;5072584;27;96002;-76
2022/03/24 22:05:36;;;;;;;50.70;24.88;;;;;;;;;;5068667;27;97202;-76
2022/03/24 22:08:02;;;;;;;43.65;24.13;;;;;;;;;;5068942;27;95564;-76
2022/03/24 22:10:29;;;;;;;42.17;24.08;;;;;;;;;;5049223;27;95892;-76
2022/03/24 22:13:02;;;;;;;55.45;24.73;;;;;;;;;;5048665;27;97223;-76
2022/03/24 22:15:28;;;;;;;48.65;24.02;;;;;;;;;;5048305;27;95128;-76
2022/03/24 22:17:55;;;;;;;49.38;22.10;;;;;;;;;;5049020;27;96478;-76
2022/03/24 22:20:21;;;;;;;39.58;22.63;;;;;;;;;;5064902;27;97367;-76
2022/03/24 22:22:49;;;;;;;46.25;23.00;;;;;;;;;;5072269;27;95688;-76
2022/03/24 22:25:15;;;;;;;46.70;23.65;;;;;;;;;;5068733;27;97602;-76
2022/03/24 22:27:42;;;;;;;42.13;22.85;;;;;;;;;;5069278;27;95293;-76
2022/03/24 22:30:08;;;;;;;45.15;23.77;;;;;;;;;;5066604;27;96888;-76
2022/03/24 22:32:35;;;;;;;40.33;22.85;;;;;;;;;;5069290;27;96578;-76
2022/03/24 22:35:01;;;;;;;41.47;22.67;;;;;;;;;;5066604;27;95720;-76
2022/03/24 22:37:27;;;;;;;43.13;22.55;;;;;;;;;;5069257;27;96883;-76
2022/03/24 22:39:54;;;;;;;39.88;22.15;;;;;;;;;;5059259;27;96523;-76
2022/03/24 22:42:20;;;;;;;53.28;23.65;;;;;;;;;;5047805;27;95696;-76
2022/03/24 22:44:47;;;;;;;57.05;23.73;;;;;;;;;;5051305;27;95675;-77
2022/03/24 22:47:13;;;;;;;42.67;23.55;;;;;;;;;;5048494;27;95675;-76
2022/03/24 22:49:39;;;;;;;43.88;23.38;;;;;;;;;;5054848;27;96370;-76
2022/03/24 22:52:05;;;;;;;39.97;22.23;;;;;;;;;;5070890;27;97676;-77
2022/03/24 22:54:32;;;;;;;48.13;23.33;;;;;;;;;;5071824;27;95105;-77
2022/03/24 22:56:58;;;;;;;48.30;23.33;;;;;;;;;;5071882;27;96747;-77
2022/03/24 22:59:25;;;;;;;48.85;23.80;;;;;;;;;;5070550;27;97426;-76
2022/03/24 23:01:54;;;;;;;41.30;21.85;;;;;;;;;;5072473;27;95620;-76
2022/03/24 23:04:22;;;;;;;58.50;24.02;;;;;;;;;;5071464;27;96624;-76
2022/03/24 23:06:49;;;;;;;43.10;22.63;;;;;;;;;;5075338;27;97294;-76
2022/03/24 23:09:15;;;;;;;40.95;22.77;;;;;;;;;;5057518;27;96832;-76
2022/03/24 23:11:41;;;;;;;46.42;23.40;;;;;;;;;;5051194;27;97380;-75
2022/03/24 23:14:08;;;;;;;56.85;22.90;;;;;;;;;;5051580;27;96038;-76
2022/03/24 23:16:35;;;;;;;39.58;22.42;;;;;;;;;;5051444;27;96923;-75
2022/03/24 23:19:02;;;;;;;45.55;22.50;;;;;;;;;;5062661;27;97298;-78
2022/03/24 23:21:28;;;;;;;46.30;22.73;;;;;;;;;;5071872;27;96053;-76
2022/03/24 23:23:55;;;;;;;42.42;22.35;;;;;;;;;;5070497;27;97547;-76
2022/03/24 23:26:22;;;;;;;46.55;23.65;;;;;;;;;;5071030;27;97266;-77
2022/03/24 23:28:48;;;;;;;55.80;23.50;;;;;;;;;;5063893;27;95931;-76
2022/03/24 23:31:14;;;;;;;46.55;24.05;;;;;;;;;;5050543;27;97375;-76
2022/03/24 23:33:41;;;;;;;42.45;22.42;;;;;;;;;;5051335;27;95365;-77
2022/03/24 23:36:11;;;;;;;44.97;23.40;;;;;;;;;;5050973;27;96371;-77
2022/03/24 23:38:38;;;;;;;41.25;23.23;;;;;;;;;;5051802;27;97697;-76
2022/03/24 23:41:04;;;;;;;64.78;24.52;;;;;;;;;;5051015;27;95742;-76
2022/03/24 23:43:30;;;;;;;56.13;23.73;;;;;;;;;;5051357;27;96824;-77
2022/03/24 23:45:57;;;;;;;53.95;24.73;;;;;;;;;;5050386;27;97457;-75
2022/03/24 23:48:23;;;;;;;52.20;25.70;;;;;;;;;;5052800;27;95296;-76
2022/03/24 23:50:50;;;;;;;47.17;25.50;;;;;;;;;;5074192;27;97405;-77
2022/03/24 23:53:16;;;;;;;50.65;24.52;;;;;;;;;;5070900;27;95787;-77
2022/03/24 23:55:42;;;;;;;48.15;25.00;;;;;;;;;;5070881;27;95876;-77
2022/03/24 23:58:09;;;;;;;47.15;24.15;;;;;;;;;;5070843;27;97305;-77
